createdAt,value
2022-11-15T00:01:18.068Z,9.35
2022-11-15T00:03:45.505Z,9.68
2022-11-15T00:06:12.701Z,9.67
2022-11-15T00:08:39.423Z,9.51
2022-11-15T00:11:07.880Z,9.43
2022-11-15T00:13:35.214Z,9.87
2022-11-15T00:16:02.774Z,9.53
2022-11-15T00:18:30.557Z,9.51
2022-11-15T00:20:57.794Z,9.38
2022-11-15T00:23:24.537Z,9.60
2022-11-15T00:25:56.885Z,9.64
2022-11-15T00:28:25.537Z,9.29
2022-11-15T00:30:52.222Z,9.14
2022-11-15T00:33:19.463Z,9.18
2022-11-15T00:35:46.572Z,9.40
2022-11-15T00:38:13.529Z,9.61
2022-11-15T00:40:40.848Z,9.54
2022-11-15T00:43:08.018Z,9.55
2022-11-15T00:45:37.042Z,9.45
2022-11-15T00:48:04.377Z,9.39
2022-11-15T00:50:31.210Z,9.35
2022-11-15T00:52:58.160Z,9.82
2022-11-15T00:55:25.242Z,9.32
2022-11-15T00:57:52.187Z,9.50
2022-11-15T01:00:20.283Z,9.51
2022-11-15T01:02:49.205Z,9.47
2022-11-15T01:05:17.021Z,9.58
2022-11-15T01:07:44.715Z,9.94
2022-11-15T01:10:14.683Z,9.68
2022-11-15T01:12:42.213Z,9.54
2022-11-15T01:15:13.199Z,9.62
2022-11-15T01:17:40.395Z,9.58
2022-11-15T01:20:10.400Z,9.32
2022-11-15T01:22:37.253Z,9.28
2022-11-15T01:25:04.634Z,9.35
2022-11-15T01:27:31.605Z,9.42
2022-11-15T01:29:58.440Z,9.60
2022-11-15T01:32:25.516Z,9.22
2022-11-15T01:34:52.201Z,9.64
2022-11-15T01:37:20.432Z,9.31
2022-11-15T01:39:47.135Z,9.32
2022-11-15T01:42:13.932Z,9.24
2022-11-15T01:44:43.766Z,9.33
2022-11-15T01:47:14.771Z,9.49
2022-11-15T01:49:54.290Z,9.48
2022-11-15T01:52:24.357Z,9.63
2022-11-15T01:54:56.116Z,9.45
2022-11-15T01:57:23.409Z,9.39
2022-11-15T01:59:50.130Z,9.16
2022-11-15T02:02:17.038Z,9.61
2022-11-15T02:04:45.674Z,9.51
2022-11-15T02:07:16.045Z,9.55
2022-11-15T02:09:45.163Z,9.60
2022-11-15T02:12:15.854Z,9.27
2022-11-15T02:14:46.893Z,9.29
2022-11-15T02:17:31.753Z,9.38
2022-11-15T02:20:47.886Z,9.49
2022-11-15T02:23:44.558Z,9.18
2022-11-15T02:26:40.785Z,9.52
2022-11-15T02:29:10.918Z,9.28
2022-11-15T02:31:45.263Z,9.32
2022-11-15T02:34:22.443Z,9.56
2022-11-15T02:37:01.520Z,9.35
2022-11-15T02:39:36.784Z,9.50
2022-11-15T02:42:08.067Z,9.32
2022-11-15T02:44:40.529Z,9.51
2022-11-15T02:47:13.005Z,9.00
2022-11-15T02:49:42.173Z,9.42
2022-11-15T02:52:09.022Z,9.33
2022-11-15T02:54:36.417Z,9.31
2022-11-15T02:57:07.112Z,9.51
2022-11-15T03:00:08.616Z,9.58
2022-11-15T03:02:47.598Z,9.14
2022-11-15T03:05:20.774Z,9.32
2022-11-15T03:08:00.888Z,9.04
2022-11-15T03:10:37.025Z,8.88
2022-11-15T03:13:15.092Z,8.88
2022-11-15T03:15:48.592Z,8.78
2022-11-15T03:18:22.919Z,8.92
2022-11-15T03:20:51.806Z,9.42
2022-11-15T03:23:19.088Z,8.94
2022-11-15T03:25:50.625Z,9.32
2022-11-15T03:28:24.376Z,9.29
2022-11-15T03:30:55.829Z,9.36
2022-11-15T03:33:31.254Z,9.00
2022-11-15T03:35:59.187Z,9.18
2022-11-15T03:38:29.385Z,9.27
2022-11-15T03:41:00.210Z,9.16
2022-11-15T03:43:33.958Z,9.39
2022-11-15T03:46:05.471Z,9.36
2022-11-15T03:48:41.574Z,9.17
2022-11-15T03:51:08.995Z,9.37
2022-11-15T03:53:35.806Z,9.38
2022-11-15T03:56:02.627Z,9.46
2022-11-15T03:58:29.732Z,9.48
2022-11-15T04:00:58.715Z,9.52
2022-11-15T04:03:26.047Z,9.09
2022-11-15T04:05:54.857Z,9.25
2022-11-15T04:08:22.173Z,9.21
2022-11-15T04:10:55.604Z,9.09
2022-11-15T04:13:22.893Z,9.27
2022-11-15T04:15:49.865Z,9.23
2022-11-15T04:18:16.698Z,9.44
2022-11-15T04:20:43.456Z,9.22
2022-11-15T04:23:14.196Z,9.38
2022-11-15T04:25:42.779Z,9.36
2022-11-15T04:28:09.991Z,9.32
2022-11-15T04:30:37.401Z,9.50
2022-11-15T04:33:04.648Z,9.47
2022-11-15T04:35:31.796Z,9.35
2022-11-15T04:37:59.653Z,9.34
2022-11-15T04:40:28.340Z,9.20
2022-11-15T04:42:59.469Z,9.20
2022-11-15T04:45:30.334Z,9.18
2022-11-15T04:47:58.486Z,9.49
2022-11-15T04:50:25.540Z,9.19
2022-11-15T04:53:02.362Z,9.07
2022-11-15T04:55:33.870Z,9.13
2022-11-15T04:58:02.005Z,9.29
2022-11-15T05:00:30.227Z,9.11
2022-11-15T05:02:57.881Z,9.37
2022-11-15T05:05:24.832Z,9.32
2022-11-15T05:07:51.960Z,9.45
2022-11-15T05:10:18.932Z,9.28
2022-11-15T05:12:48.445Z,9.26
2022-11-15T05:15:15.429Z,9.34
2022-11-15T05:17:42.256Z,9.44
2022-11-15T05:20:10.091Z,9.36
2022-11-15T05:22:37.032Z,8.96
2022-11-15T05:25:05.197Z,8.98
2022-11-15T05:27:32.034Z,9.04
2022-11-15T05:30:01.128Z,9.18
2022-11-15T05:32:29.146Z,9.44
2022-11-15T05:34:56.079Z,9.52
2022-11-15T05:37:23.221Z,9.11
2022-11-15T05:39:50.034Z,9.13
2022-11-15T05:42:17.753Z,8.89
2022-11-15T05:44:47.899Z,9.35
2022-11-15T05:47:21.039Z,9.26
2022-11-15T05:49:50.636Z,9.58
2022-11-15T05:52:19.153Z,9.57
2022-11-15T05:54:46.120Z,9.28
2022-11-15T05:57:12.895Z,8.99
2022-11-15T05:59:39.923Z,9.21
2022-11-15T06:02:06.897Z,9.53
2022-11-15T06:04:35.526Z,9.41
2022-11-15T06:07:02.906Z,9.50
2022-11-15T06:09:29.721Z,9.09
2022-11-15T06:11:56.525Z,8.99
2022-11-15T06:14:23.177Z,9.14
2022-11-15T06:16:50.051Z,9.29
2022-11-15T06:19:16.874Z,9.40
2022-11-15T06:21:45.260Z,9.33
2022-11-15T06:24:12.055Z,9.68
2022-11-15T06:26:42.329Z,9.73
2022-11-15T06:29:09.471Z,9.44
2022-11-15T06:31:36.795Z,8.96
2022-11-15T06:34:03.674Z,9.50
2022-11-15T06:36:30.696Z,9.24
2022-11-15T06:39:08.799Z,9.37
2022-11-15T06:41:35.771Z,9.83
2022-11-15T06:47:06.928Z,9.84
2022-11-15T06:49:33.764Z,9.79
2022-11-15T06:52:00.645Z,9.89
2022-11-15T06:54:28.819Z,9.70
2022-11-15T06:56:55.659Z,9.86
2022-11-15T06:59:22.372Z,9.74
2022-11-15T07:42:10.923Z,10.61
2022-11-15T07:44:37.965Z,10.22
2022-11-15T07:47:05.215Z,10.53
2022-11-15T07:49:32.480Z,10.40
2022-11-15T07:52:01.580Z,10.22
2022-11-15T07:54:31.916Z,10.59
2022-11-15T07:57:54.561Z,10.74
2022-11-15T10:07:19.603Z,12.20
2022-11-15T10:09:52.595Z,11.82
2022-11-15T10:12:20.142Z,11.99
2022-11-15T10:14:54.429Z,11.89
2022-11-15T10:17:47.960Z,11.83
2022-11-15T10:20:19.406Z,11.73
2022-11-15T10:25:25.994Z,12.05
2022-11-15T10:30:28.719Z,12.41
2022-11-15T10:32:58.684Z,12.12
2022-11-15T10:35:28.601Z,12.08
2022-11-15T10:38:23.160Z,12.05
2022-11-15T10:57:02.774Z,12.20
2022-11-15T10:59:38.828Z,12.27
2022-11-15T11:02:32.072Z,11.92
2022-11-15T11:05:29.457Z,11.75
2022-11-15T11:08:06.937Z,11.67
2022-11-15T11:10:51.532Z,11.76
2022-11-15T11:28:03.776Z,12.52
2022-11-15T11:36:59.000Z,12.86
2022-11-15T11:39:35.258Z,13.07
2022-11-15T11:46:04.295Z,13.02
2022-11-15T11:49:06.054Z,12.90
2022-11-15T11:52:01.924Z,12.98
2022-11-15T11:54:55.830Z,12.35
2022-11-15T12:00:26.983Z,12.70
2022-11-15T12:06:44.305Z,13.25
2022-11-15T12:09:18.981Z,12.74
2022-11-15T12:19:55.274Z,12.27
2022-11-15T12:22:39.861Z,12.47
2022-11-15T12:25:28.421Z,12.56
2022-11-15T12:28:24.565Z,12.44
2022-11-15T12:36:41.710Z,12.69
2022-11-15T13:14:48.094Z,13.25
2022-11-15T13:17:33.697Z,13.51
2022-11-15T13:20:23.840Z,13.51
2022-11-15T13:22:53.546Z,13.28
2022-11-15T13:25:42.197Z,13.45
2022-11-15T13:30:57.039Z,14.22
2022-11-15T13:33:31.682Z,14.41
2022-11-15T13:38:45.681Z,13.82
2022-11-15T13:51:09.004Z,13.68
2022-11-15T13:53:42.080Z,13.40
2022-11-15T16:29:49.719Z,11.27
2022-11-15T16:32:17.083Z,11.51
2022-11-15T16:34:49.204Z,11.16
2022-11-15T16:37:24.027Z,11.74
2022-11-15T16:39:57.149Z,11.20
2022-11-15T16:42:26.973Z,11.46
2022-11-15T16:44:55.293Z,11.07
2022-11-15T16:47:22.208Z,11.71
2022-11-15T16:49:51.909Z,11.38
2022-11-15T16:52:21.542Z,11.79
2022-11-15T16:54:51.504Z,11.48
2022-11-15T16:57:18.461Z,11.70
2022-11-15T16:59:45.227Z,11.63
2022-11-15T17:02:13.862Z,11.75
2022-11-15T17:04:48.511Z,11.62
2022-11-15T17:07:15.728Z,11.46
2022-11-15T17:09:42.612Z,11.43
2022-11-15T17:12:09.902Z,11.59
2022-11-15T17:14:36.677Z,11.70
2022-11-15T17:17:03.638Z,11.30
2022-11-15T17:19:32.445Z,11.29
2022-11-15T17:21:59.213Z,11.32
2022-11-15T17:24:28.460Z,11.27
2022-11-15T17:26:55.311Z,11.51
2022-11-15T17:29:22.457Z,11.17
2022-11-15T17:32:04.903Z,11.15
2022-11-15T17:34:33.188Z,11.34
2022-11-15T17:37:00.328Z,11.32
2022-11-15T17:39:31.136Z,10.93
2022-11-15T17:41:58.157Z,10.97
2022-11-15T17:44:27.052Z,10.95
2022-11-15T17:46:53.878Z,10.99
2022-11-15T17:49:20.622Z,10.67
2022-11-15T17:51:50.181Z,10.63
2022-11-15T17:54:17.264Z,10.67
2022-11-15T17:56:44.167Z,10.82
2022-11-15T17:59:14.813Z,10.76
2022-11-15T18:01:44.295Z,10.22
2022-11-15T18:04:11.149Z,10.48
2022-11-15T18:06:38.104Z,10.36
2022-11-15T18:09:06.787Z,10.65
2022-11-15T18:11:35.448Z,10.79
2022-11-15T18:14:03.824Z,10.61
2022-11-15T18:16:32.437Z,10.33
2022-11-15T18:18:59.744Z,10.27
2022-11-15T18:21:28.246Z,10.51
2022-11-15T18:24:04.025Z,10.39
2022-11-15T18:26:32.203Z,10.72
2022-11-15T18:29:03.930Z,10.35
2022-11-15T18:31:31.553Z,10.45
2022-11-15T18:33:59.879Z,9.84
2022-11-15T18:36:29.836Z,10.14
2022-11-15T18:38:57.659Z,9.97
2022-11-15T18:41:25.642Z,9.95
2022-11-15T18:43:54.673Z,9.89
2022-11-15T18:46:26.860Z,10.10
2022-11-15T18:48:54.547Z,9.97
2022-11-15T18:51:23.107Z,10.32
2022-11-15T18:53:53.070Z,10.13
2022-11-15T18:56:21.230Z,10.48
2022-11-15T18:58:54.670Z,10.26
2022-11-15T19:01:27.458Z,10.05
2022-11-15T19:03:58.283Z,9.79
2022-11-15T19:06:26.733Z,9.70
2022-11-15T19:08:59.229Z,10.01
2022-11-15T19:11:27.732Z,9.93
2022-11-15T19:13:55.445Z,10.29
2022-11-15T19:16:28.731Z,10.35
2022-11-15T19:19:05.715Z,10.76
2022-11-15T19:21:32.838Z,10.30
2022-11-15T19:24:00.559Z,10.65
2022-11-15T19:26:28.544Z,10.61
2022-11-15T19:28:56.733Z,10.90
2022-11-15T19:31:27.056Z,10.75
2022-11-15T19:33:54.907Z,10.73
2022-11-15T19:36:26.674Z,10.87
2022-11-15T19:38:54.142Z,10.76
2022-11-15T19:41:22.661Z,10.72
2022-11-15T19:43:51.701Z,11.13
2022-11-15T19:46:20.652Z,10.89
2022-11-15T19:48:50.910Z,11.11
2022-11-15T19:51:21.061Z,10.72
2022-11-15T19:53:48.747Z,11.00
2022-11-15T19:56:18.989Z,10.88
2022-11-15T19:58:49.754Z,10.64
2022-11-15T20:01:21.567Z,10.81
2022-11-15T20:03:52.357Z,10.78
2022-11-15T20:06:35.243Z,10.46
2022-11-15T20:09:05.779Z,10.23
2022-11-15T20:11:33.684Z,10.12
2022-11-15T20:14:01.723Z,10.47
2022-11-15T20:16:30.002Z,10.37
2022-11-15T20:19:00.033Z,9.98
2022-11-15T20:21:27.993Z,10.28
2022-11-15T20:23:55.014Z,10.02
2022-11-15T20:26:22.412Z,10.24
2022-11-15T20:28:49.238Z,10.02
2022-11-15T20:31:17.063Z,10.38
2022-11-15T20:33:44.300Z,10.39
2022-11-15T20:36:15.243Z,10.08
2022-11-15T20:38:43.465Z,10.21
2022-11-15T20:41:10.742Z,10.26
2022-11-15T20:43:37.563Z,10.23
2022-11-15T20:46:04.505Z,10.19
2022-11-15T20:48:31.478Z,10.10
2022-11-15T20:51:06.142Z,10.31
2022-11-15T20:53:34.962Z,10.29
2022-11-15T20:56:07.476Z,10.18
2022-11-15T20:58:34.757Z,10.29
2022-11-15T21:01:01.791Z,9.93
2022-11-15T21:03:28.660Z,9.97
2022-11-15T21:05:55.615Z,9.92
2022-11-15T21:08:22.402Z,10.20
2022-11-15T21:10:52.840Z,10.68
2022-11-15T21:13:20.028Z,10.51
2022-11-15T21:15:46.815Z,10.52
2022-11-15T21:18:13.724Z,11.05
2022-11-15T21:20:40.414Z,10.74
2022-11-15T21:23:09.632Z,10.50
2022-11-15T21:25:36.442Z,10.88
2022-11-15T21:28:04.858Z,11.39
2022-11-15T21:30:31.600Z,11.26
2022-11-15T21:32:58.373Z,11.15
2022-11-15T21:35:25.153Z,11.37
2022-11-15T21:37:56.513Z,11.12
2022-11-15T21:40:23.983Z,11.06
2022-11-15T21:42:50.713Z,11.21
2022-11-15T21:45:29.973Z,10.82
2022-11-15T21:47:57.019Z,11.13
2022-11-15T21:50:23.961Z,10.74
2022-11-15T21:52:50.733Z,10.90
2022-11-15T21:55:17.522Z,11.38
2022-11-15T21:57:46.496Z,11.14
2022-11-15T22:00:14.815Z,11.07
2022-11-15T22:02:43.058Z,10.89
2022-11-15T22:05:09.804Z,10.92
2022-11-15T22:07:42.642Z,10.95
2022-11-15T22:10:09.817Z,10.69
2022-11-15T22:12:36.915Z,10.98
2022-11-15T22:15:04.281Z,11.30
2022-11-15T22:17:31.027Z,11.39
2022-11-15T22:20:11.307Z,11.34
2022-11-15T22:22:57.397Z,11.45
2022-11-15T22:25:24.319Z,11.13
2022-11-15T22:27:51.183Z,11.44
2022-11-15T22:30:20.563Z,11.11
2022-11-15T22:32:47.493Z,10.96
2022-11-15T22:35:16.020Z,10.89
2022-11-15T22:37:45.741Z,10.91
2022-11-15T22:40:12.463Z,10.59
2022-11-15T22:42:46.143Z,10.86
2022-11-15T22:45:18.099Z,11.10
2022-11-15T22:47:45.899Z,11.13
2022-11-15T22:50:17.163Z,11.33
2022-11-15T22:52:44.127Z,11.23
2022-11-15T22:55:11.057Z,11.34
2022-11-15T22:57:40.250Z,11.28
2022-11-15T23:00:11.521Z,11.67
2022-11-15T23:08:55.694Z,11.21
2022-11-15T23:11:22.753Z,11.44
2022-11-15T23:13:50.960Z,11.18
2022-11-15T23:16:17.791Z,11.33
2022-11-15T23:18:56.503Z,11.18
2022-11-15T23:21:24.870Z,11.35
2022-11-15T23:24:18.067Z,11.23
2022-11-15T23:26:46.270Z,10.92
2022-11-15T23:29:15.223Z,11.46
2022-11-15T23:31:43.138Z,11.26
2022-11-15T23:34:09.970Z,11.41
2022-11-15T23:36:36.773Z,11.34
2022-11-15T23:39:05.139Z,11.50
2022-11-15T23:41:32.095Z,11.45
2022-11-15T23:43:59.045Z,11.41
2022-11-15T23:46:25.917Z,11.29
2022-11-15T23:48:52.780Z,11.37
2022-11-15T23:51:19.618Z,11.20
2022-11-15T23:53:46.568Z,11.33
2022-11-15T23:56:16.622Z,11.29
2022-11-15T23:58:44.570Z,11.62
